Time;durP1;ratioP1;P1;durP2;ratioP2;P2;SDS_P1;SDS_P2;PMS_P1;PMS_P2;Temp;Humidity;BMP_temperature;BMP_pressure;BME280_temperature;BME280_humidity;BME280_pressure;Samples;Min_cycle;Max_cycle;Signal;HPM_P1;HPM_P2
2023/11/25 00:00:22;;;;;;;;;;;3.60;99.90;;;;;;5053383;28;20021;-76
2023/11/25 00:02:51;;;;;;;0.90;0.67;;;3.60;99.90;;;;;;5053011;28;19920;-76
2023/11/25 00:05:17;;;;;;;1.98;0.52;;;3.50;99.90;;;;;;5051516;28;20460;-76
2023/11/25 00:07:42;;;;;;;;;;;3.40;99.90;;;;;;5051809;28;20560;-76
2023/11/25 00:10:08;;;;;;;1.33;0.40;;;3.50;99.90;;;;;;5051594;28;19909;-76
2023/11/25 00:12:35;;;;;;;1.58;0.40;;;3.40;99.90;;;;;;5053061;28;20091;-76
2023/11/25 00:15:01;;;;;;;4.40;0.57;;;3.30;99.90;;;;;;5051643;28;20021;-77
2023/11/25 00:17:28;;;;;;;1.48;0.55;;;3.40;99.90;;;;;;5053258;28;20508;-76
2023/11/25 00:19:57;;;;;;;0.70;0.30;;;3.30;99.90;;;;;;5052141;28;20528;-76
2023/11/25 00:22:24;;;;;;;1.23;0.70;;;3.30;99.90;;;;;;5053241;28;20044;-76
2023/11/25 00:24:50;;;;;;;2.28;0.57;;;3.30;99.90;;;;;;5052279;28;20033;-76
2023/11/25 00:27:17;;;;;;;2.88;0.80;;;3.40;99.90;;;;;;5052353;28;20039;-76
2023/11/25 00:29:43;;;;;;;2.63;1.13;;;3.40;99.90;;;;;;5053913;28;20037;-76
2023/11/25 00:32:10;;;;;;;3.25;1.38;;;3.30;99.90;;;;;;5054706;28;20029;-77
2023/11/25 00:34:36;;;;;;;4.28;1.70;;;3.40;99.90;;;;;;5054184;28;20032;-77
2023/11/25 00:37:02;;;;;;;4.85;2.15;;;3.30;99.90;;;;;;5052963;28;20032;-77
2023/11/25 00:39:29;;;;;;;6.65;2.40;;;3.30;99.90;;;;;;5054357;28;20084;-77
2023/11/25 00:41:55;;;;;;;3.10;1.35;;;3.40;99.90;;;;;;5054137;28;20017;-76
2023/11/25 00:44:21;;;;;;;3.95;1.33;;;3.30;99.90;;;;;;5054751;28;20501;-77
2023/11/25 00:46:47;;;;;;;;;;;3.40;99.90;;;;;;5053423;28;20071;-76
2023/11/25 00:49:15;;;;;;;2.60;1.13;;;3.30;99.90;;;;;;5055123;28;19915;-76
2023/11/25 00:51:41;;;;;;;3.97;1.70;;;3.30;99.90;;;;;;5053388;28;20028;-77
2023/11/25 00:54:08;;;;;;;2.20;0.90;;;3.20;99.90;;;;;;5054916;28;20032;-77
2023/11/25 00:56:33;;;;;;;3.92;1.42;;;3.20;99.90;;;;;;5055136;28;20028;-77
2023/11/25 00:58:59;;;;;;;;;;;3.30;99.90;;;;;;5052697;28;20028;-76
2023/11/25 01:01:25;;;;;;;15.45;1.92;;;3.30;99.90;;;;;;5050926;28;20355;-77
2023/11/25 01:03:50;;;;;;;;;;;3.30;99.90;;;;;;5051606;28;20469;-76
2023/11/25 01:06:16;;;;;;;7.70;2.40;;;3.20;99.90;;;;;;5052365;28;19962;-77
2023/11/25 01:08:42;;;;;;;;;;;3.20;99.90;;;;;;5052514;28;20029;-76
2023/11/25 01:11:07;;;;;;;13.43;4.60;;;3.30;99.90;;;;;;5051754;28;19959;-77
2023/11/25 01:13:33;;;;;;;;;;;3.30;99.90;;;;;;5052347;28;20041;-77
2023/11/25 01:16:00;;;;;;;4.53;1.30;;;3.30;99.90;;;;;;5050719;28;19908;-77
2023/11/25 01:18:26;;;;;;;6.85;2.92;;;3.30;99.90;;;;;;5051006;28;20052;-77
2023/11/25 01:20:55;;;;;;;7.45;2.70;;;3.40;99.90;;;;;;5051979;28;20036;-76
2023/11/25 01:23:25;;;;;;;4.38;1.35;;;3.30;99.90;;;;;;5052348;28;20029;-76
2023/11/25 01:25:51;;;;;;;7.03;2.22;;;3.30;99.90;;;;;;5050576;28;20094;-76
2023/11/25 01:28:16;;;;;;;;;;;3.30;99.90;;;;;;5051562;28;20033;-76
2023/11/25 01:30:42;;;;;;;4.50;1.75;;;3.40;99.90;;;;;;5051217;28;20304;-76
2023/11/25 01:33:09;;;;;;;;;;;3.40;99.90;;;;;;5050455;28;20619;-76
2023/11/25 01:35:35;;;;;;;12.82;4.47;;;3.50;99.90;;;;;;5050183;28;19908;-76
2023/11/25 01:38:01;;;;;;;3.97;1.42;;;3.60;99.90;;;;;;5051299;28;20032;-76
2023/11/25 01:40:26;;;;;;;;;;;3.60;99.90;;;;;;5050785;28;20162;-76
2023/11/25 01:42:58;;;;;;;6.60;2.58;;;3.60;99.90;;;;;;5050890;28;20016;-76
2023/11/25 01:45:27;;;;;;;9.05;2.60;;;3.60;99.90;;;;;;5050384;28;20037;-75
2023/11/25 01:47:54;;;;;;;2.95;0.63;;;3.50;99.90;;;;;;5045251;28;20082;-76
2023/11/25 01:50:20;;;;;;;9.98;2.83;;;3.50;99.90;;;;;;5052022;28;20126;-76
2023/11/25 01:52:47;;;;;;;;;;;3.50;99.90;;;;;;5052177;28;20059;-76
2023/11/25 01:55:14;;;;;;;7.43;2.20;;;3.40;99.90;;;;;;5051569;28;19909;-76
2023/11/25 01:57:41;;;;;;;5.70;1.90;;;3.40;99.90;;;;;;5051879;28;20486;-78
2023/11/25 02:00:09;;;;;;;3.10;1.17;;;3.50;99.90;;;;;;5053887;28;20052;-77
2023/11/25 02:02:35;;;;;;;5.90;1.67;;;3.50;99.90;;;;;;5035663;28;20033;-76
2023/11/25 02:05:03;;;;;;;;;;;3.40;99.90;;;;;;5052695;28;20040;-77
2023/11/25 02:07:29;;;;;;;5.40;1.77;;;3.40;99.90;;;;;;5052901;28;20369;-76
2023/11/25 02:09:58;;;;;;;;;;;3.30;99.90;;;;;;5053640;28;20032;-76
2023/11/25 02:12:24;;;;;;;4.40;1.00;;;3.30;99.90;;;;;;5053208;28;19995;-77
2023/11/25 02:14:50;;;;;;;5.65;2.10;;;3.30;99.90;;;;;;5052927;28;20067;-75
2023/11/25 02:17:15;;;;;;;;;;;3.20;99.90;;;;;;5052275;28;20021;-76
2023/11/25 02:19:44;;;;;;;3.85;1.50;;;3.30;99.90;;;;;;5051937;28;20376;-76
2023/11/25 02:22:10;;;;;;;2.10;0.93;;;3.20;99.90;;;;;;5053175;28;20058;-76
2023/11/25 02:24:37;;;;;;;4.47;1.52;;;3.10;99.90;;;;;;5053266;28;20033;-76
2023/11/25 02:27:04;;;;;;;3.55;1.15;;;3.10;99.90;;;;;;5053422;28;20397;-76
2023/11/25 02:29:32;;;;;;;2.38;0.90;;;3.10;99.90;;;;;;5051558;28;20055;-76
2023/11/25 02:32:04;;;;;;;4.28;0.60;;;3.20;99.90;;;;;;5053337;28;20035;-76
2023/11/25 02:34:30;;;;;;;3.80;0.70;;;3.10;99.90;;;;;;5052250;28;20081;-76
2023/11/25 02:36:58;;;;;;;;;;;3.10;99.90;;;;;;5052580;28;20445;-75
2023/11/25 02:39:25;;;;;;;2.47;0.80;;;3.10;99.90;;;;;;5053506;28;19905;-76
2023/11/25 02:41:52;;;;;;;3.55;1.00;;;3.10;99.90;;;;;;5052951;28;20060;-77
2023/11/25 02:44:19;;;;;;;3.65;0.85;;;3.20;99.90;;;;;;5057293;28;20456;-76
2023/11/25 02:46:48;;;;;;;5.05;0.50;;;3.10;99.90;;;;;;5056985;28;20045;-77
2023/11/25 02:49:14;;;;;;;1.27;0.40;;;3.20;99.90;;;;;;5058703;28;20143;-76
2023/11/25 02:51:50;;;;;;;3.10;1.35;;;3.10;99.90;;;;;;5057750;28;20025;-76
2023/11/25 02:54:17;;;;;;;3.80;1.40;;;3.00;99.90;;;;;;5055745;28;20024;-75
2023/11/25 02:56:43;;;;;;;1.98;0.73;;;3.00;99.90;;;;;;5056970;28;20100;-76
2023/11/25 02:59:09;;;;;;;;;;;2.90;99.90;;;;;;5056825;28;20110;-76
2023/11/25 03:01:39;;;;;;;4.30;0.70;;;3.00;99.90;;;;;;5057275;28;19991;-77
2023/11/25 03:04:05;;;;;;;2.13;0.43;;;2.90;99.90;;;;;;5054548;28;20036;-77
2023/11/25 03:06:31;;;;;;;2.78;0.80;;;3.00;99.90;;;;;;5052338;28;20106;-76
2023/11/25 03:08:58;;;;;;;1.42;0.50;;;2.90;99.90;;;;;;5053570;28;20074;-77
2023/11/25 03:11:26;;;;;;;2.60;0.93;;;2.90;99.90;;;;;;5053775;28;20037;-77
2023/11/25 03:13:52;;;;;;;1.80;0.82;;;2.90;99.90;;;;;;5052399;28;20033;-77
2023/11/25 03:16:24;;;;;;;;;;;2.90;99.90;;;;;;5054682;28;20067;-78
2023/11/25 03:18:50;;;;;;;2.53;0.68;;;2.80;99.90;;;;;;5053666;28;20288;-77
2023/11/25 03:21:20;;;;;;;1.92;0.50;;;2.80;99.90;;;;;;5054005;28;20044;-76
2023/11/25 03:23:46;;;;;;;6.28;0.60;;;2.80;99.90;;;;;;5052301;28;20029;-76
2023/11/25 03:26:13;;;;;;;2.13;0.95;;;2.80;99.90;;;;;;5052393;28;20052;-77
2023/11/25 03:28:38;;;;;;;1.25;0.57;;;2.70;99.90;;;;;;5054033;28;20044;-76
2023/11/25 03:31:04;;;;;;;;;;;2.70;99.90;;;;;;5054336;28;20033;-77
2023/11/25 03:33:34;;;;;;;0.95;0.47;;;2.60;99.90;;;;;;5054860;28;19942;-77
2023/11/25 03:36:00;;;;;;;1.23;0.40;;;2.60;99.90;;;;;;5052536;28;20029;-77
2023/11/25 03:38:25;;;;;;;;;;;2.50;99.90;;;;;;5053150;28;20052;-76
2023/11/25 03:40:52;;;;;;;4.28;0.60;;;2.50;99.90;;;;;;5053525;28;19911;-76
2023/11/25 03:43:21;;;;;;;1.73;0.68;;;2.30;99.90;;;;;;5052759;28;20087;-76
2023/11/25 03:45:47;;;;;;;2.28;0.80;;;2.30;99.90;;;;;;5052405;28;20097;-76
2023/11/25 03:48:14;;;;;;;3.25;1.00;;;2.30;99.90;;;;;;5052117;28;20016;-77
2023/11/25 03:50:39;;;;;;;3.38;1.17;;;2.30;99.90;;;;;;5052002;28;20032;-76
2023/11/25 03:53:05;;;;;;;;;;;2.30;99.90;;;;;;5053765;28;20021;-76
2023/11/25 03:55:31;;;;;;;4.50;1.27;;;2.30;99.90;;;;;;5052142;28;19979;-76
2023/11/25 03:57:56;;;;;;;;;;;2.30;99.90;;;;;;5053753;28;20116;-76
2023/11/25 04:00:22;;;;;;;3.05;0.98;;;2.20;99.90;;;;;;5051989;28;19991;-76
2023/11/25 04:02:48;;;;;;;;;;;2.30;99.90;;;;;;5052942;28;20029;-77
2023/11/25 04:05:16;;;;;;;3.90;0.93;;;2.30;99.90;;;;;;5054183;28;19920;-77
2023/11/25 04:07:41;;;;;;;5.18;1.25;;;2.30;99.90;;;;;;5052190;28;20539;-77
2023/11/25 04:10:15;;;;;;;;;;;2.40;99.90;;;;;;5054150;28;20045;-77
2023/11/25 04:12:46;;;;;;;7.55;2.60;;;2.30;99.90;;;;;;5053898;28;19909;-77
2023/11/25 04:15:13;;;;;;;4.10;1.38;;;2.30;99.90;;;;;;5054219;28;20021;-77
2023/11/25 04:17:42;;;;;;;21.58;7.78;;;2.30;99.90;;;;;;5053712;28;20032;-77
2023/11/25 04:20:23;;;;;;;18.98;7.47;;;2.40;99.90;;;;;;5052136;28;20032;-77
2023/11/25 04:22:50;;;;;;;21.80;6.75;;;2.40;99.90;;;;;;5051946;28;20488;-77
2023/11/25 04:25:15;;;;;;;16.38;5.72;;;2.40;99.90;;;;;;5053549;28;20033;-78
2023/11/25 04:27:42;;;;;;;;;;;2.40;99.90;;;;;;5052592;28;20047;-77
2023/11/25 04:30:09;;;;;;;8.10;3.75;;;2.40;99.90;;;;;;5051979;28;20051;-78
2023/11/25 04:32:35;;;;;;;12.57;6.20;;;2.30;99.90;;;;;;5051766;28;20108;-77
2023/11/25 04:35:03;;;;;;;13.13;5.40;;;2.30;99.90;;;;;;5052393;28;20082;-76
2023/11/25 04:37:29;;;;;;;11.60;5.10;;;2.30;99.90;;;;;;5053079;28;20025;-77
2023/11/25 04:39:55;;;;;;;17.90;6.22;;;2.20;99.90;;;;;;5052418;28;20436;-76
2023/11/25 04:42:20;;;;;;;;;;;2.20;99.90;;;;;;5052383;28;20056;-75
2023/11/25 04:44:46;;;;;;;18.05;6.43;;;2.20;99.90;;;;;;5051082;28;20372;-76
2023/11/25 04:47:11;;;;;;;;;;;2.30;99.90;;;;;;5051333;28;20029;-76
2023/11/25 04:49:37;;;;;;;14.02;5.80;;;2.20;99.90;;;;;;5050793;28;19908;-76
2023/11/25 04:52:04;;;;;;;;;;;2.30;99.90;;;;;;5050722;28;20025;-75
2023/11/25 04:54:30;;;;;;;11.73;3.45;;;2.20;99.90;;;;;;5053041;28;20343;-76
2023/11/25 04:56:55;;;;;;;;;;;2.20;99.90;;;;;;5051692;28;20029;-76
2023/11/25 04:59:21;;;;;;;5.78;1.98;;;2.30;99.90;;;;;;5052848;28;19905;-76
2023/11/25 05:01:47;;;;;;;;;;;2.20;99.90;;;;;;5052474;28;20757;-75
2023/11/25 05:04:12;;;;;;;16.30;6.38;;;2.10;99.90;;;;;;5050883;28;19913;-76
2023/11/25 05:06:38;;;;;;;;;;;2.20;99.90;;;;;;5050455;28;20075;-76
2023/11/25 05:09:05;;;;;;;14.75;4.93;;;2.10;99.90;;;;;;5054003;28;19905;-76
2023/11/25 05:11:30;;;;;;;14.15;4.70;;;2.10;99.90;;;;;;5052425;28;20264;-76
2023/11/25 05:13:57;;;;;;;;;;;2.10;99.90;;;;;;5050675;28;20532;-76
2023/11/25 05:16:23;;;;;;;9.25;3.60;;;2.10;99.90;;;;;;5051440;28;19917;-76
2023/11/25 05:18:49;;;;;;;;;;;2.10;99.90;;;;;;5050135;28;20520;-77
2023/11/25 05:21:15;;;;;;;6.05;1.83;;;2.00;99.90;;;;;;5051345;28;19912;-76
2023/11/25 05:23:40;;;;;;;;;;;2.00;99.90;;;;;;5051526;28;20025;-77
2023/11/25 05:26:07;;;;;;;4.05;1.20;;;2.10;99.90;;;;;;5051558;28;19908;-77
2023/11/25 05:28:33;;;;;;;5.53;1.52;;;2.20;99.90;;;;;;5051219;28;20036;-77
2023/11/25 05:30:59;;;;;;;8.43;1.55;;;2.10;99.90;;;;;;5051171;28;20036;-77
2023/11/25 05:33:25;;;;;;;;;;;2.20;99.90;;;;;;5050513;28;20029;-77
2023/11/25 05:35:50;;;;;;;5.68;1.67;;;2.20;99.90;;;;;;5049529;28;19908;-76
2023/11/25 05:38:18;;;;;;;;;;;2.10;99.90;;;;;;5049802;28;20029;-76
2023/11/25 05:40:43;;;;;;;4.88;1.15;;;2.40;99.90;;;;;;5049967;28;19946;-77
2023/11/25 05:43:09;;;;;;;;;;;2.20;99.90;;;;;;5050548;28;20583;-76
2023/11/25 05:45:38;;;;;;;6.32;2.20;;;2.20;99.90;;;;;;5051564;28;19913;-77
2023/11/25 05:48:05;;;;;;;4.70;1.60;;;2.10;99.90;;;;;;5050767;28;20020;-77
2023/11/25 05:50:30;;;;;;;4.95;1.48;;;2.10;99.90;;;;;;5051799;28;20082;-77
2023/11/25 05:52:56;;;;;;;;;;;2.10;99.90;;;;;;5050551;28;20021;-77
2023/11/25 05:55:22;;;;;;;3.95;1.30;;;2.00;99.90;;;;;;5052956;28;20461;-77
2023/11/25 05:57:50;;;;;;;3.65;1.10;;;1.90;99.90;;;;;;5051915;28;20039;-76
2023/11/25 06:00:16;;;;;;;4.50;1.65;;;1.90;99.90;;;;;;5052419;28;20035;-77
2023/11/25 06:02:41;;;;;;;;;;;1.90;99.90;;;;;;5051923;28;20411;-76
2023/11/25 06:05:09;;;;;;;3.95;1.20;;;1.80;99.90;;;;;;5051742;28;20481;-76
2023/11/25 06:07:34;;;;;;;11.90;2.85;;;1.80;99.90;;;;;;5049807;28;20091;-75
2023/11/25 06:10:00;;;;;;;;;;;2.00;99.90;;;;;;5050199;28;20033;-76
2023/11/25 06:12:26;;;;;;;10.70;3.80;;;1.90;99.90;;;;;;5049082;28;19916;-75
2023/11/25 06:14:55;;;;;;;9.77;5.05;;;2.00;99.90;;;;;;5048807;28;20032;-77
2023/11/25 06:17:23;;;;;;;6.07;1.00;;;2.00;99.90;;;;;;5052705;28;20036;-76
2023/11/25 06:19:52;;;;;;;3.47;1.00;;;1.90;99.90;;;;;;5053168;28;20025;-76
2023/11/25 06:22:17;;;;;;;5.70;1.50;;;1.90;99.90;;;;;;5054214;28;20017;-76
2023/11/25 06:24:43;;;;;;;;;;;1.80;99.90;;;;;;5053413;28;20047;-76
2023/11/25 06:27:09;;;;;;;4.32;0.77;;;1.90;99.90;;;;;;5054407;28;19905;-76
2023/11/25 06:29:34;;;;;;;;;;;1.80;99.90;;;;;;5053691;28;20110;-77
2023/11/25 06:32:00;;;;;;;8.07;1.95;;;1.70;99.90;;;;;;5054558;28;19905;-76
2023/11/25 06:34:26;;;;;;;;;;;1.60;99.90;;;;;;5053769;28;20031;-76
2023/11/25 06:36:52;;;;;;;7.30;2.10;;;1.60;99.90;;;;;;5054277;28;19905;-77
2023/11/25 06:39:22;;;;;;;;;;;1.80;99.90;;;;;;5054022;28;20497;-77
2023/11/25 06:41:49;;;;;;;7.95;3.42;;;1.70;99.90;;;;;;5053449;28;19913;-76
2023/11/25 06:44:17;;;;;;;12.07;2.53;;;1.70;99.90;;;;;;5053570;28;20048;-77
2023/11/25 06:46:47;;;;;;;4.90;2.20;;;1.80;99.90;;;;;;5053328;28;20032;-76
2023/11/25 06:49:13;;;;;;;8.27;3.47;;;1.80;99.90;;;;;;5053029;28;20021;-77
2023/11/25 06:51:40;;;;;;;;;;;2.00;99.90;;;;;;5053159;28;20023;-75
2023/11/25 06:54:05;;;;;;;6.57;1.70;;;2.10;99.90;;;;;;5055113;28;20338;-76
2023/11/25 06:56:33;;;;;;;;;;;2.40;99.90;;;;;;5056064;28;20041;-77
2023/11/25 06:58:58;;;;;;;3.70;1.10;;;2.90;99.90;;;;;;5054527;28;19909;-77
2023/11/25 07:01:24;;;;;;;;;;;3.20;99.90;;;;;;5056497;28;20036;-77
2023/11/25 07:03:50;;;;;;;6.18;0.95;;;3.30;99.90;;;;;;5053951;28;19916;-76
2023/11/25 07:06:17;;;;;;;;;;;3.30;99.90;;;;;;5054651;28;20029;-75
2023/11/25 07:08:44;;;;;;;5.68;1.88;;;3.40;99.90;;;;;;5055263;28;20262;-76
2023/11/25 07:11:10;;;;;;;3.53;1.70;;;3.70;99.90;;;;;;5056410;28;20122;-76
2023/11/25 07:13:36;;;;;;;5.20;1.75;;;4.10;99.90;;;;;;5055629;28;20159;-76
2023/11/25 07:16:04;;;;;;;;;;;4.60;99.90;;;;;;5057203;28;20028;-77
2023/11/25 07:18:32;;;;;;;2.55;0.75;;;4.90;99.90;;;;;;5056057;28;19908;-76
2023/11/25 07:20:59;;;;;;;5.32;1.92;;;5.20;99.90;;;;;;5051493;28;20029;-76
2023/11/25 07:23:25;;;;;;;6.63;1.02;;;5.20;99.90;;;;;;5051937;28;20024;-77
2023/11/25 07:25:51;;;;;;;;;;;5.10;99.90;;;;;;5051510;28;20063;-77
2023/11/25 07:28:16;;;;;;;6.55;1.77;;;4.90;99.90;;;;;;5050880;28;20254;-77
2023/11/25 07:30:42;;;;;;;;;;;4.90;99.90;;;;;;5053240;28;20517;-76
2023/11/25 07:33:08;;;;;;;9.98;2.58;;;4.80;99.90;;;;;;5053066;28;19915;-76
2023/11/25 07:35:35;;;;;;;5.03;1.80;;;5.00;99.90;;;;;;5052695;28;20108;-77
2023/11/25 07:38:02;;;;;;;6.63;2.05;;;5.10;99.90;;;;;;5051559;28;20056;-77
2023/11/25 07:40:28;;;;;;;7.25;1.80;;;5.50;99.90;;;;;;5051879;28;20030;-76
2023/11/25 07:42:53;;;;;;;;;;;5.80;99.90;;;;;;5051774;28;20463;-77
2023/11/25 07:45:19;;;;;;;5.32;2.00;;;6.10;99.90;;;;;;5052442;28;20278;-76
2023/11/25 07:47:45;;;;;;;;;;;6.60;99.90;;;;;;5052632;28;20035;-77
2023/11/25 07:50:11;;;;;;;6.13;1.23;;;7.00;99.90;;;;;;5054055;28;19958;-76
2023/11/25 07:52:36;;;;;;;;;;;7.30;99.90;;;;;;5053822;28;20037;-77
2023/11/25 07:55:04;;;;;;;4.38;1.02;;;7.50;99.90;;;;;;5054382;28;19916;-77
2023/11/25 07:57:30;;;;;;;3.15;1.00;;;7.70;99.90;;;;;;5051587;28;20500;-76
2023/11/25 07:59:56;;;;;;;3.33;0.80;;;7.70;99.90;;;;;;5052205;28;20025;-76
2023/11/25 08:02:21;;;;;;;;;;;7.90;97.20;;;;;;5052730;28;20036;-76
2023/11/25 08:04:47;;;;;;;9.82;3.60;;;7.90;96.00;;;;;;5053034;28;20077;-77
2023/11/25 08:07:14;;;;;;;;;;;7.80;95.90;;;;;;5054043;28;20112;-76
2023/11/25 08:09:40;;;;;;;50.72;17.58;;;7.60;95.30;;;;;;5053248;28;19909;-76
2023/11/25 08:12:06;;;;;;;;;;;7.20;95.60;;;;;;5053593;28;20040;-76
2023/11/25 08:14:32;;;;;;;14.38;6.15;;;6.90;97.30;;;;;;5053197;28;19909;-76
2023/11/25 08:16:58;;;;;;;;;;;6.50;98.80;;;;;;5054069;28;20102;-77
2023/11/25 08:19:24;;;;;;;5.45;2.40;;;6.40;99.90;;;;;;5052293;28;19944;-76
2023/11/25 08:21:49;;;;;;;;;;;6.20;99.90;;;;;;5051014;28;20059;-75
2023/11/25 08:24:17;;;;;;;2.88;0.75;;;6.10;99.90;;;;;;5052323;28;19989;-76
2023/11/25 08:26:44;;;;;;;3.78;1.10;;;6.00;99.90;;;;;;5051568;28;20036;-76
2023/11/25 08:29:11;;;;;;;14.85;4.25;;;5.90;99.90;;;;;;5052344;28;20382;-77
2023/11/25 08:31:37;;;;;;;4.55;1.77;;;6.10;99.90;;;;;;5052848;28;20517;-77
2023/11/25 08:34:09;;;;;;;;;;;6.00;99.90;;;;;;5053234;28;20108;-76
2023/11/25 08:36:52;;;;;;;4.50;0.80;;;5.90;99.90;;;;;;5052819;28;19908;-76
2023/11/25 08:39:21;;;;;;;2.28;0.50;;;5.90;99.90;;;;;;5051230;28;20025;-76
2023/11/25 08:41:47;;;;;;;2.22;0.68;;;6.00;99.90;;;;;;5052988;28;20033;-76
2023/11/25 08:44:13;;;;;;;5.47;1.15;;;6.10;99.90;;;;;;5052706;28;20054;-76
2023/11/25 08:46:44;;;;;;;;;;;6.10;99.90;;;;;;5052936;28;20089;-76
2023/11/25 08:49:18;;;;;;;2.35;0.77;;;6.00;99.90;;;;;;5052332;28;19905;-75
2023/11/25 08:51:47;;;;;;;8.75;2.30;;;6.20;99.90;;;;;;5052840;28;20410;-76
2023/11/25 08:54:13;;;;;;;11.02;3.72;;;6.20;99.90;;;;;;5054691;28;20020;-77
2023/11/25 08:56:46;;;;;;;10.05;5.47;;;6.10;99.90;;;;;;5054386;28;20029;-76
2023/11/25 08:59:17;;;;;;;3.03;0.80;;;6.10;99.90;;;;;;5053325;28;20502;-77
2023/11/25 09:01:43;;;;;;;3.88;0.55;;;6.10;99.90;;;;;;5052920;28;20128;-76
2023/11/25 09:04:13;;;;;;;2.78;0.57;;;6.10;99.90;;;;;;5053332;28;20021;-77
2023/11/25 09:06:39;;;;;;;4.05;0.60;;;6.10;99.90;;;;;;5053384;28;20033;-77
2023/11/25 09:09:08;;;;;;;;;;;6.10;99.90;;;;;;5055840;28;20025;-76
2023/11/25 09:11:34;;;;;;;1.67;0.50;;;6.10;99.90;;;;;;5055241;28;19975;-76
2023/11/25 09:14:00;;;;;;;1.77;0.43;;;6.20;99.90;;;;;;5053420;28;20067;-76
2023/11/25 09:16:27;;;;;;;;;;;6.20;99.90;;;;;;5054494;28;20032;-76
2023/11/25 09:18:54;;;;;;;;;;;6.20;99.70;;;;;;5053129;28;19968;-76
2023/11/25 09:21:19;;;;;;;5.38;1.45;;;6.10;99.70;;;;;;5053636;28;19905;-77
2023/11/25 09:23:45;;;;;;;;;;;6.10;99.90;;;;;;5052001;28;20036;-76
2023/11/25 09:26:11;;;;;;;3.63;0.60;;;6.10;99.90;;;;;;5052485;28;19916;-77
2023/11/25 09:28:36;;;;;;;;;;;6.10;99.70;;;;;;5052598;28;20032;-76
2023/11/25 09:31:02;;;;;;;2.88;0.60;;;6.20;99.70;;;;;;5049459;28;19909;-77
2023/11/25 09:33:28;;;;;;;;;;;6.10;99.90;;;;;;5050186;28;20076;-76
2023/11/25 09:35:53;;;;;;;5.82;2.00;;;6.10;99.90;;;;;;5050828;28;20003;-77
2023/11/25 09:38:19;;;;;;;;;;;6.20;98.60;;;;;;5050912;28;20029;-76
2023/11/25 09:40:45;;;;;;;3.20;1.27;;;6.20;97.60;;;;;;5050379;28;19913;-76
2023/11/25 09:43:11;;;;;;;;;;;6.10;98.40;;;;;;5049885;28;20049;-76
2023/11/25 09:45:37;;;;;;;1.48;0.40;;;6.10;99.20;;;;;;5051024;28;19966;-77
2023/11/25 09:48:03;;;;;;;;;;;6.10;98.70;;;;;;5051682;28;20033;-76
2023/11/25 09:50:28;;;;;;;2.85;0.70;;;6.10;98.90;;;;;;5050446;28;19995;-76
2023/11/25 09:52:58;;;;;;;;;;;6.10;99.10;;;;;;5048037;28;20033;-76
2023/11/25 09:55:24;;;;;;;1.92;0.70;;;6.20;98.90;;;;;;5050078;28;19908;-76
2023/11/25 09:58:02;;;;;;;4.78;0.55;;;6.20;99.00;;;;;;5048977;28;20025;-76
2023/11/25 10:00:28;;;;;;;1.77;0.50;;;6.30;99.10;;;;;;5051154;28;20100;-75
2023/11/25 10:02:56;;;;;;;3.40;0.75;;;6.40;99.30;;;;;;5049119;28;20035;-76
2023/11/25 10:05:22;;;;;;;1.38;0.63;;;6.30;98.70;;;;;;5050581;28;20033;-76
2023/11/25 10:07:48;;;;;;;;;;;6.20;99.10;;;;;;5048425;28;20033;-76
2023/11/25 10:10:23;;;;;;;1.92;0.43;;;6.30;97.60;;;;;;5049333;28;19916;-76
2023/11/25 10:12:50;;;;;;;1.67;0.50;;;6.30;98.00;;;;;;5047607;28;20029;-75
2023/11/25 10:15:16;;;;;;;1.77;0.57;;;6.40;97.80;;;;;;5047870;28;20079;-76
2023/11/25 10:17:42;;;;;;;;;;;6.40;98.30;;;;;;5049681;28;20521;-75
2023/11/25 10:20:22;;;;;;;3.90;0.60;;;6.40;96.90;;;;;;5051101;28;19912;-77
2023/11/25 10:22:57;;;;;;;2.70;0.55;;;6.50;97.10;;;;;;5050179;28;20028;-77
2023/11/25 10:25:25;;;;;;;2.17;0.40;;;6.50;96.70;;;;;;5047105;28;20041;-77
2023/11/25 10:27:53;;;;;;;1.98;0.50;;;6.50;96.80;;;;;;5048884;28;20067;-76
2023/11/25 10:30:21;;;;;;;3.40;1.33;;;6.50;96.10;;;;;;5049477;28;20037;-76
2023/11/25 10:32:49;;;;;;;3.08;1.20;;;6.50;93.90;;;;;;5051123;28;20032;-76
2023/11/25 10:35:15;;;;;;;2.45;0.80;;;6.50;94.60;;;;;;5051706;28;20021;-77
2023/11/25 10:37:41;;;;;;;3.95;0.88;;;6.50;94.50;;;;;;5049095;28;20025;-76
2023/11/25 10:40:09;;;;;;;;;;;6.50;94.90;;;;;;5049799;28;20024;-76
2023/11/25 10:42:36;;;;;;;5.07;1.50;;;6.50;95.20;;;;;;5049660;28;19928;-76
2023/11/25 10:45:04;;;;;;;4.55;2.22;;;6.50;94.10;;;;;;5049406;28;20083;-76
2023/11/25 10:47:33;;;;;;;5.00;1.67;;;6.50;91.90;;;;;;5048945;28;20029;-76
2023/11/25 10:50:03;;;;;;;3.03;0.50;;;6.50;94.40;;;;;;5049463;28;20124;-76
2023/11/25 10:52:38;;;;;;;2.75;1.17;;;6.60;94.50;;;;;;5050180;28;20021;-75
2023/11/25 10:55:06;;;;;;;3.65;1.67;;;6.50;95.00;;;;;;5049850;28;20025;-76
2023/11/25 10:57:33;;;;;;;9.10;3.35;;;6.50;94.10;;;;;;5048401;28;20119;-76
2023/11/25 10:59:59;;;;;;;9.73;2.30;;;6.60;94.20;;;;;;5048597;28;20048;-77
2023/11/25 11:02:34;;;;;;;11.68;4.07;;;6.60;94.10;;;;;;5050127;28;20044;-75
2023/11/25 11:05:08;;;;;;;4.60;2.15;;;6.60;94.90;;;;;;5069938;28;20025;-76
2023/11/25 11:07:38;;;;;;;5.28;1.17;;;6.60;94.40;;;;;;5053472;28;20025;-76
2023/11/25 11:10:10;;;;;;;2.65;1.00;;;6.60;94.90;;;;;;5053703;28;20774;-76
2023/11/25 11:12:45;;;;;;;5.40;1.85;;;6.60;94.90;;;;;;5054333;28;20025;-76
2023/11/25 11:15:15;;;;;;;6.72;2.28;;;6.80;91.70;;;;;;5053446;28;20059;-76
2023/11/25 11:18:06;;;;;;;4.10;1.75;;;6.80;91.70;;;;;;5053333;28;20033;-76
2023/11/25 11:20:37;;;;;;;5.78;1.15;;;6.80;90.80;;;;;;5052984;28;20458;-77
2023/11/25 11:23:04;;;;;;;4.45;1.17;;;6.90;89.50;;;;;;5053727;28;20040;-77
2023/11/25 11:25:42;;;;;;;5.25;2.22;;;7.00;87.80;;;;;;5055610;28;20132;-76
2023/11/25 11:28:25;;;;;;;4.68;2.15;;;6.80;89.30;;;;;;5053733;28;20033;-77
2023/11/25 11:31:28;;;;;;;6.15;2.30;;;6.70;90.10;;;;;;5055595;28;20021;-76
2023/11/25 11:33:54;;;;;;;3.60;1.60;;;6.50;91.90;;;;;;5055787;28;20029;-78
2023/11/25 11:36:30;;;;;;;8.10;2.30;;;6.50;92.70;;;;;;5055810;28;20403;-77
2023/11/25 11:38:56;;;;;;;4.68;0.98;;;6.40;93.20;;;;;;5051910;28;20032;-77
2023/11/25 11:41:21;;;;;;;;;;;6.40;93.80;;;;;;5052635;28;20025;-77
2023/11/25 11:44:06;;;;;;;7.90;3.92;;;6.40;94.10;;;;;;5053394;28;20304;-77
2023/11/25 11:46:38;;;;;;;6.90;3.03;;;6.50;93.50;;;;;;5052647;28;20064;-77
2023/11/25 11:49:07;;;;;;;4.50;2.28;;;6.70;93.10;;;;;;5053855;28;20037;-76
2023/11/25 11:51:34;;;;;;;4.20;1.23;;;6.80;93.20;;;;;;5053191;28;20064;-76
2023/11/25 11:57:13;;;;;;;3.70;0.90;;;7.10;90.70;;;;;;5053164;28;20087;-77
2023/11/25 12:00:00;;;;;;;10.45;4.47;;;7.00;90.40;;;;;;5052235;28;20037;-76
2023/11/25 12:02:32;;;;;;;8.30;4.22;;;6.70;90.90;;;;;;5053629;28;20425;-76
2023/11/25 12:04:58;;;;;;;6.57;2.53;;;6.60;92.20;;;;;;5051997;28;20041;-76
2023/11/25 12:07:26;;;;;;;6.63;2.75;;;6.60;92.80;;;;;;5052363;28;20032;-76
2023/11/25 12:09:55;;;;;;;5.45;2.75;;;6.50;93.50;;;;;;5052583;28;20029;-77
2023/11/25 12:12:21;;;;;;;9.55;5.28;;;6.60;93.30;;;;;;5051998;28;20840;-76
2023/11/25 12:14:48;;;;;;;45.38;18.52;;;6.60;93.70;;;;;;5053143;28;20048;-76
2023/11/25 12:17:15;;;;;;;9.88;5.03;;;6.40;93.00;;;;;;5051292;28;20025;-76
2023/11/25 12:19:43;;;;;;;12.50;5.10;;;6.60;92.10;;;;;;5053049;28;20474;-75
2023/11/25 12:22:11;;;;;;;2.42;0.90;;;6.60;92.70;;;;;;5053533;28;20036;-77
2023/11/25 12:24:40;;;;;;;33.30;17.10;;;6.80;91.40;;;;;;5051803;28;20032;-76
2023/11/25 12:27:09;;;;;;;58.13;30.27;;;6.80;91.70;;;;;;5051437;28;20029;-77
2023/11/25 12:29:35;;;;;;;59.40;33.60;;;6.80;92.10;;;;;;5053202;28;20427;-77
2023/11/25 12:32:00;;;;;;;;;;;6.70;93.10;;;;;;5053696;28;20100;-77
2023/11/25 12:34:27;;;;;;;10.32;5.28;;;6.60;92.40;;;;;;5051822;28;20389;-77
2023/11/25 12:36:53;;;;;;;8.57;4.05;;;6.60;92.60;;;;;;5051831;28;20021;-76
2023/11/25 12:39:19;;;;;;;;;;;6.50;92.30;;;;;;5053816;28;20028;-78
2023/11/25 12:41:44;;;;;;;8.50;3.55;;;6.50;92.60;;;;;;5053619;28;20288;-76
2023/11/25 12:44:10;;;;;;;;;;;6.60;93.40;;;;;;5053444;28;20523;-77
2023/11/25 12:46:40;;;;;;;9.30;3.25;;;6.50;94.60;;;;;;5051862;28;20021;-76
2023/11/25 12:49:25;;;;;;;7.97;3.25;;;6.60;95.50;;;;;;5052172;28;20112;-77
2023/11/25 12:51:51;;;;;;;14.63;9.23;;;6.50;95.50;;;;;;5053289;28;20454;-77
2023/11/25 12:54:18;;;;;;;9.50;4.78;;;6.40;94.60;;;;;;5052684;28;20036;-77
2023/11/25 12:56:50;;;;;;;5.90;3.03;;;6.50;95.10;;;;;;5053119;28;20025;-76
2023/11/25 12:59:43;;;;;;;6.28;2.95;;;6.50;95.00;;;;;;5051673;28;20119;-77
2023/11/25 13:02:11;;;;;;;5.75;3.28;;;6.40;94.30;;;;;;5048072;28;20033;-77
2023/11/25 13:04:55;;;;;;;13.05;3.58;;;6.40;93.90;;;;;;5051469;28;20044;-76
2023/11/25 13:07:31;;;;;;;8.63;3.25;;;6.40;93.60;;;;;;5052763;28;20055;-77
2023/11/25 13:09:56;;;;;;;13.10;5.63;;;6.50;93.80;;;;;;5052832;28;20117;-77
2023/11/25 13:12:22;;;;;;;;;;;6.50;93.10;;;;;;5052784;28;20065;-76
2023/11/25 13:14:49;;;;;;;9.75;4.18;;;6.70;92.30;;;;;;5052027;28;19920;-76
2023/11/25 13:17:16;;;;;;;7.47;3.30;;;6.80;92.80;;;;;;5053515;28;20045;-76
2023/11/25 13:19:42;;;;;;;8.00;3.83;;;6.80;92.70;;;;;;5053535;28;20032;-77
2023/11/25 13:22:07;;;;;;;;;;;6.90;92.50;;;;;;5054679;28;20024;-76